Cetacea — WDG7421 — position and weather

sailwx.info

Track history (hours):
 
Tides and Currents Weather Stations Pressure Air Temp Water Temp Dewpoint Dewpoint Depression Visibility Wind Speed Wind Dir Waves Ship Positions

Cetacea

Owner: Boston Harbor Cruises, Boston, MA. More information available from US FCC via Universal Licensing System and Coast Guard Vessel Documentation Center.

Last reported at 2018-Feb-03 01:08 UTC. Time now 2018-Feb-21 17:12 UTC.
Position N 42°22' W 071°03'.
Warning: this ship's position is 18 days out of date.

Length 25 m; draft 2 m.

Type: Passenger vessel. MMSI: 367567110.

Date/timePositionNaut miles runAvg speedWind from/ knotsBaromVisibWave heightAir tempDewpointWater temp
2018-Feb-03 01:08N 42°22' W 071°03'0 0.3
2018-Feb-03 00:59N 42°22' W 071°03'611.1
2018-Feb-03 00:24N 42°17' W 070°57'2 3.8
2018-Feb-02 23:56N 42°16' W 070°55'818.7
2018-Feb-02 23:30N 42°21' W 071°03'610.6
2018-Feb-02 22:57N 42°17' W 070°57'2 4.4
2018-Feb-02 22:28N 42°16' W 070°55'810.3
2018-Feb-02 21:43N 42°21' W 071°03'618.2
2018-Feb-02 21:22N 42°17' W 070°57'1 1.4
2018-Feb-02 20:49N 42°17' W 070°56'719.9
2018-Feb-02 20:28N 42°21' W 071°03'2 4.7
2018-Feb-02 19:59N 42°20' W 071°00'4 0.8
2018-Feb-02 14:27N 42°17' W 070°56'714.7
2018-Feb-02 14:00N 42°22' W 071°03'1 1.6
2018-Feb-02 13:30N 42°21' W 071°02'811.7
2018-Feb-02 12:50N 42°15' W 070°55'310.0
2018-Feb-02 12:30N 42°18' W 070°58'5 9.3
2018-Feb-02 12:00N 42°21' W 071°02'812.1
2018-Feb-02 11:21N 42°15' W 070°55'2 0.2
2018-Feb-02 00:30N 42°15' W 070°58'2 4.6
2018-Feb-01 23:59N 42°15' W 070°55'810.7
2018-Feb-01 23:13N 42°21' W 071°03'419.9
2018-Feb-01 23:00N 42°18' W 070°59'4 4.1
2018-Feb-01 21:56N 42°21' W 071°03'3 6.2
2018-Feb-01 21:31N 42°20' W 070°60'3 0.6
2018-Feb-01 16:46N 42°22' W 071°03'0 1.5
2018-Feb-01 16:30N 42°21' W 071°02'8 7.3
2018-Feb-01 15:28N 42°16' W 070°55'815.2
2018-Feb-01 14:58N 42°21' W 071°03'1 0.5
2018-Feb-01 13:30N 42°21' W 071°02'7 9.1
2018-Feb-01 12:41N 42°16' W 070°55'420.9
2018-Feb-01 12:29N 42°19' W 070°59'3 7.0
2018-Feb-01 12:00N 42°21' W 071°02'8 0.6
2018-Feb-01 00:25N 42°15' W 070°58'3 4.5
2018-Jan-31 23:51N 42°17' W 070°56'0 0.2
2018-Jan-31 22:20N 42°17' W 070°56'2 1.3
2018-Jan-31 20:58N 42°15' W 070°55'816.4
2018-Jan-31 20:28N 42°21' W 071°03'0 0.6
2018-Jan-31 19:57N 42°22' W 071°03'0 0.1
2018-Jan-31 16:42N 42°22' W 071°03'0 0.9
2018-Jan-31 16:30N 42°21' W 071°03'6 5.7
2018-Jan-31 15:24N 42°17' W 070°56'715.5
2018-Jan-31 14:59N 42°21' W 071°03'0 0.4
2018-Jan-31 14:13N 42°22' W 071°03'8 5.2
2018-Jan-31 12:41N 42°16' W 070°55'721.4
2018-Jan-31 12:22N 42°21' W 071°02'1 2.1
2018-Jan-31 12:00N 42°21' W 071°03'811.4
2018-Jan-31 11:18N 42°16' W 070°55'723.2
2018-Jan-31 11:00N 42°21' W 071°01'2 0.1
2018-Jan-31 00:47N 42°22' W 071°03'6 6.4
2018-Jan-30 23:49N 42°17' W 070°57'615.4
2018-Jan-30 23:26N 42°21' W 071°03'7 6.0
2018-Jan-30 22:21N 42°17' W 070°56'1 0.6
2018-Jan-30 21:24N 42°17' W 070°57'0 0.6
2018-Jan-30 20:44N 42°17' W 070°58'523.7
2018-Jan-30 20:30N 42°21' W 071°02'0 0.9
2018-Jan-30 20:00N 42°22' W 071°03'0 0.2
2018-Jan-30 19:22N 42°22' W 071°03'0 0.0
2018-Jan-30 18:58N 42°22' W 071°03'0 0.4
2018-Jan-30 18:25N 42°22' W 071°03'0 0.5
2018-Jan-30 17:56N 42°22' W 071°03'0 0.0
2018-Jan-30 16:37N 42°22' W 071°03'0 0.0
2018-Jan-30 16:09N 42°22' W 071°03'1 3.7
2018-Jan-30 15:59N 42°22' W 071°02'0 0.0
2018-Jan-30 15:30N 42°22' W 071°02'2 4.0
2018-Jan-30 14:59N 42°20' W 071°00'0 0.1
2018-Jan-30 13:25N 42°20' W 071°00'2 4.8
2018-Jan-30 13:00N 42°21' W 071°03'0 0.3
2018-Jan-30 11:24N 42°22' W 071°03'  
Track history (hours):
 
Tides and Currents Weather Stations Pressure Air Temp Water Temp Dewpoint Dewpoint Depression Visibility Wind Speed Wind Dir Waves Ship Positions

Cetacea

Owner: Boston Harbor Cruises, Boston, MA. More information available from US FCC via Universal Licensing System and Coast Guard Vessel Documentation Center.

Last reported at 2018-Feb-03 01:08 UTC. Time now 2018-Feb-21 17:12 UTC.
Position N 42°22' W 071°03'.
Warning: this ship's position is 18 days out of date.

Length 25 m; draft 2 m.

Type: Passenger vessel. MMSI: 367567110.

Date/timePositionNaut miles runAvg speedWind from/ knotsBaromVisibWave heightAir tempDewpointWater temp
2018-Feb-03 01:08N 42°22' W 071°03'0 0.3
2018-Feb-03 00:59N 42°22' W 071°03'611.1
2018-Feb-03 00:24N 42°17' W 070°57'2 3.8
2018-Feb-02 23:56N 42°16' W 070°55'818.7
2018-Feb-02 23:30N 42°21' W 071°03'610.6
2018-Feb-02 22:57N 42°17' W 070°57'2 4.4
2018-Feb-02 22:28N 42°16' W 070°55'810.3
2018-Feb-02 21:43N 42°21' W 071°03'618.2
2018-Feb-02 21:22N 42°17' W 070°57'1 1.4
2018-Feb-02 20:49N 42°17' W 070°56'719.9
2018-Feb-02 20:28N 42°21' W 071°03'2 4.7
2018-Feb-02 19:59N 42°20' W 071°00'4 0.8
2018-Feb-02 14:27N 42°17' W 070°56'714.7
2018-Feb-02 14:00N 42°22' W 071°03'1 1.6
2018-Feb-02 13:30N 42°21' W 071°02'811.7
2018-Feb-02 12:50N 42°15' W 070°55'310.0
2018-Feb-02 12:30N 42°18' W 070°58'5 9.3
2018-Feb-02 12:00N 42°21' W 071°02'812.1
2018-Feb-02 11:21N 42°15' W 070°55'2 0.2
2018-Feb-02 00:30N 42°15' W 070°58'2 4.6
2018-Feb-01 23:59N 42°15' W 070°55'810.7
2018-Feb-01 23:13N 42°21' W 071°03'419.9
2018-Feb-01 23:00N 42°18' W 070°59'4 4.1
2018-Feb-01 21:56N 42°21' W 071°03'3 6.2
2018-Feb-01 21:31N 42°20' W 070°60'3 0.6
2018-Feb-01 16:46N 42°22' W 071°03'0 1.5
2018-Feb-01 16:30N 42°21' W 071°02'8 7.3
2018-Feb-01 15:28N 42°16' W 070°55'815.2
2018-Feb-01 14:58N 42°21' W 071°03'1 0.5
2018-Feb-01 13:30N 42°21' W 071°02'7 9.1
2018-Feb-01 12:41N 42°16' W 070°55'420.9
2018-Feb-01 12:29N 42°19' W 070°59'3 7.0
2018-Feb-01 12:00N 42°21' W 071°02'8 0.6
2018-Feb-01 00:25N 42°15' W 070°58'3 4.5
2018-Jan-31 23:51N 42°17' W 070°56'0 0.2
2018-Jan-31 22:20N 42°17' W 070°56'2 1.3
2018-Jan-31 20:58N 42°15' W 070°55'816.4
2018-Jan-31 20:28N 42°21' W 071°03'0 0.6
2018-Jan-31 19:57N 42°22' W 071°03'0 0.1
2018-Jan-31 16:42N 42°22' W 071°03'0 0.9
2018-Jan-31 16:30N 42°21' W 071°03'6 5.7
2018-Jan-31 15:24N 42°17' W 070°56'715.5
2018-Jan-31 14:59N 42°21' W 071°03'0 0.4
2018-Jan-31 14:13N 42°22' W 071°03'8 5.2
2018-Jan-31 12:41N 42°16' W 070°55'721.4
2018-Jan-31 12:22N 42°21' W 071°02'1 2.1
2018-Jan-31 12:00N 42°21' W 071°03'811.4
2018-Jan-31 11:18N 42°16' W 070°55'723.2
2018-Jan-31 11:00N 42°21' W 071°01'2 0.1
2018-Jan-31 00:47N 42°22' W 071°03'6 6.4
2018-Jan-30 23:49N 42°17' W 070°57'615.4
2018-Jan-30 23:26N 42°21' W 071°03'7 6.0
2018-Jan-30 22:21N 42°17' W 070°56'1 0.6
2018-Jan-30 21:24N 42°17' W 070°57'0 0.6
2018-Jan-30 20:44N 42°17' W 070°58'523.7
2018-Jan-30 20:30N 42°21' W 071°02'0 0.9
2018-Jan-30 20:00N 42°22' W 071°03'0 0.2
2018-Jan-30 19:22N 42°22' W 071°03'0 0.0
2018-Jan-30 18:58N 42°22' W 071°03'0 0.4
2018-Jan-30 18:25N 42°22' W 071°03'0 0.5
2018-Jan-30 17:56N 42°22' W 071°03'0 0.0
2018-Jan-30 16:37N 42°22' W 071°03'0 0.0
2018-Jan-30 16:09N 42°22' W 071°03'1 3.7
2018-Jan-30 15:59N 42°22' W 071°02'0 0.0
2018-Jan-30 15:30N 42°22' W 071°02'2 4.0
2018-Jan-30 14:59N 42°20' W 071°00'0 0.1
2018-Jan-30 13:25N 42°20' W 071°00'2 4.8
2018-Jan-30 13:00N 42°21' W 071°03'0 0.3
2018-Jan-30 11:24N 42°22' W 071°03'  

Dump ship's entire track history